createdAt,value
2019-05-10T00:01:25.724Z,2.30
2019-05-10T00:04:16.070Z,2.33
2019-05-10T00:07:06.412Z,2.13
2019-05-10T00:09:37.912Z,2.13
2019-05-10T00:12:29.421Z,2.30
2019-05-10T00:15:01.156Z,2.97
2019-05-10T00:17:32.889Z,2.33
2019-05-10T00:20:05.114Z,3.20
2019-05-10T00:22:37.020Z,2.10
2019-05-10T00:25:09.055Z,2.70
2019-05-10T00:27:40.874Z,2.67
2019-05-10T00:30:13.006Z,2.63
2019-05-10T00:32:44.717Z,2.63
2019-05-10T00:35:16.628Z,2.30
2019-05-10T00:37:48.342Z,2.83
2019-05-10T00:40:20.079Z,2.10
2019-05-10T00:42:51.898Z,2.30
2019-05-10T00:45:23.616Z,2.50
2019-05-10T00:47:55.306Z,2.80
2019-05-10T00:50:27.148Z,2.43
2019-05-10T00:52:58.862Z,2.40
2019-05-10T00:55:30.588Z,2.60
2019-05-10T00:58:02.393Z,2.63
2019-05-10T01:00:34.204Z,2.70
2019-05-10T01:03:05.924Z,2.67
2019-05-10T01:05:37.672Z,2.57
2019-05-10T01:08:09.376Z,2.40
2019-05-10T01:10:41.242Z,2.43
2019-05-10T01:13:13.018Z,2.40
2019-05-10T01:15:46.814Z,2.80
2019-05-10T01:18:18.324Z,2.33
2019-05-10T01:20:50.041Z,2.17
2019-05-10T01:23:21.756Z,2.53
2019-05-10T01:25:53.477Z,2.10
2019-05-10T01:28:25.295Z,2.40
2019-05-10T01:30:57.005Z,2.63
2019-05-10T01:33:28.739Z,2.00
2019-05-10T01:36:00.443Z,2.00
2019-05-10T01:38:32.178Z,2.00
2019-05-10T01:41:04.005Z,2.37
2019-05-10T01:43:35.805Z,2.40
2019-05-10T01:46:07.549Z,2.00
2019-05-10T01:48:39.261Z,2.10
2019-05-10T01:51:10.968Z,2.50
2019-05-10T01:53:42.708Z,2.20
2019-05-10T01:56:14.508Z,1.83
2019-05-10T01:58:46.205Z,1.90
2019-05-10T02:01:18.058Z,2.23
2019-05-10T02:03:49.783Z,2.33
2019-05-10T02:06:21.585Z,1.90
2019-05-10T02:08:53.288Z,2.17
2019-05-10T02:11:25.011Z,1.93
2019-05-10T02:13:56.858Z,2.30
2019-05-10T02:16:28.684Z,2.17
2019-05-10T02:19:00.405Z,2.00
2019-05-10T02:21:32.124Z,2.07
2019-05-10T02:24:04.045Z,1.90
2019-05-10T02:26:35.765Z,2.03
2019-05-10T02:29:07.496Z,2.00
2019-05-10T02:31:39.229Z,2.37
2019-05-10T02:34:10.956Z,2.27
2019-05-10T02:36:42.795Z,2.00
2019-05-10T02:39:14.561Z,1.90
2019-05-10T02:41:46.364Z,1.77
2019-05-10T02:44:18.066Z,2.00
2019-05-10T02:46:49.806Z,2.67
2019-05-10T02:49:21.607Z,2.00
2019-05-10T02:51:53.322Z,2.10
2019-05-10T02:54:25.251Z,1.77
2019-05-10T02:56:57.386Z,2.33
2019-05-10T02:59:29.485Z,1.93
2019-05-10T03:02:04.019Z,2.13
2019-05-10T03:04:36.552Z,2.13
2019-05-10T03:07:08.487Z,2.17
2019-05-10T03:09:42.106Z,2.43
2019-05-10T03:12:21.361Z,2.37
2019-05-10T03:14:55.106Z,2.37
2019-05-10T03:17:27.477Z,2.70
2019-05-10T03:20:00.150Z,2.23
2019-05-10T03:22:37.378Z,2.43
2019-05-10T03:25:11.234Z,2.60
2019-05-10T03:27:43.054Z,2.53
2019-05-10T03:30:15.092Z,2.10
2019-05-10T03:32:47.027Z,2.80
2019-05-10T03:35:18.866Z,2.50
2019-05-10T03:37:50.639Z,2.50
2019-05-10T03:40:22.451Z,2.43
2019-05-10T03:42:54.494Z,2.27
2019-05-10T03:45:26.307Z,2.40
2019-05-10T03:47:58.036Z,2.40
2019-05-10T03:50:29.760Z,2.00
2019-05-10T03:53:01.481Z,2.40
2019-05-10T03:55:33.383Z,2.90
2019-05-10T03:58:05.218Z,2.40
2019-05-10T04:00:37.036Z,2.33
2019-05-10T04:03:08.858Z,2.07
2019-05-10T04:05:40.578Z,1.87
2019-05-10T04:08:12.403Z,2.13
2019-05-10T04:10:44.211Z,2.40
2019-05-10T04:13:15.958Z,2.50
2019-05-10T04:15:47.765Z,2.17
2019-05-10T04:18:19.599Z,2.13
2019-05-10T04:20:51.321Z,2.50
2019-05-10T04:23:23.270Z,1.97
2019-05-10T04:25:55.082Z,2.20
2019-05-10T04:28:26.910Z,1.77
2019-05-10T04:30:58.720Z,2.17
2019-05-10T04:33:30.454Z,2.77
2019-05-10T04:36:02.396Z,2.53
2019-05-10T04:38:34.210Z,2.07
2019-05-10T04:41:05.926Z,1.90
2019-05-10T04:43:37.871Z,2.37
2019-05-10T04:46:09.720Z,2.10
2019-05-10T04:48:41.537Z,2.83
2019-05-10T04:51:13.488Z,2.13
2019-05-10T04:53:45.246Z,2.60
2019-05-10T04:56:17.021Z,2.53
2019-05-10T04:58:48.855Z,2.17
2019-05-10T05:01:20.662Z,2.97
2019-05-10T05:03:52.506Z,2.83
2019-05-10T05:06:24.323Z,2.60
2019-05-10T05:08:56.064Z,3.40
2019-05-10T05:11:27.781Z,2.63
2019-05-10T05:13:59.531Z,2.87
2019-05-10T05:16:31.333Z,2.63
2019-05-10T05:19:03.252Z,3.23
2019-05-10T05:21:34.976Z,3.07
2019-05-10T05:24:06.713Z,2.97
2019-05-10T05:26:38.430Z,2.87
2019-05-10T05:29:10.149Z,2.93
2019-05-10T05:31:41.978Z,3.00
2019-05-10T05:34:13.802Z,3.00
2019-05-10T05:36:45.596Z,3.00
2019-05-10T05:39:17.332Z,2.57
2019-05-10T05:41:51.608Z,3.30
2019-05-10T05:44:25.998Z,2.83
2019-05-10T05:46:56.517Z,2.60
2019-05-10T05:49:28.259Z,2.77
2019-05-10T05:52:00.017Z,2.60
2019-05-10T05:54:31.862Z,2.80
2019-05-10T05:57:03.610Z,2.70
2019-05-10T05:59:35.342Z,3.13
2019-05-10T06:02:09.156Z,3.00
2019-05-10T06:04:45.925Z,2.60
2019-05-10T06:07:14.471Z,2.70
2019-05-10T06:09:46.229Z,4.10
2019-05-10T06:12:18.746Z,5.53
2019-05-10T06:14:52.406Z,5.50
2019-05-10T06:17:29.432Z,5.13
2019-05-10T06:20:01.019Z,5.07
2019-05-10T06:22:31.395Z,5.43
2019-05-10T06:25:04.054Z,7.03
2019-05-10T06:27:41.222Z,6.27
2019-05-10T06:30:10.344Z,7.00
2019-05-10T06:32:42.067Z,7.10
2019-05-10T06:35:18.953Z,6.87
2019-05-10T06:37:47.534Z,7.37
2019-05-10T06:40:32.633Z,7.93
2019-05-10T06:42:52.913Z,9.10
2019-05-10T06:45:24.965Z,8.83
2019-05-10T06:47:56.772Z,9.00
2019-05-10T06:50:29.874Z,9.67
2019-05-10T06:53:07.566Z,10.00
2019-05-10T06:55:35.817Z,9.07
2019-05-10T06:58:07.656Z,10.20
2019-05-10T07:00:45.027Z,9.63
2019-05-10T07:03:13.282Z,9.13
2019-05-10T07:05:45.008Z,10.40
2019-05-10T07:08:20.325Z,9.27
2019-05-10T07:10:50.337Z,10.03
2019-05-10T07:13:22.041Z,9.07
2019-05-10T07:15:53.765Z,10.40
2019-05-10T07:18:25.659Z,9.87
2019-05-10T07:21:00.907Z,10.30
2019-05-10T07:23:31.028Z,10.83
2019-05-10T07:26:02.973Z,10.50
2019-05-10T07:28:34.793Z,10.10
2019-05-10T07:31:06.696Z,9.73
2019-05-10T07:33:40.138Z,10.13
2019-05-10T07:36:15.252Z,9.73
2019-05-10T07:38:45.777Z,9.50
2019-05-10T07:41:19.668Z,10.60
2019-05-10T07:43:51.102Z,10.17
2019-05-10T07:46:22.828Z,10.73
2019-05-10T07:48:54.548Z,10.10
2019-05-10T07:51:28.717Z,10.97
2019-05-10T07:54:04.544Z,11.90
2019-05-10T07:56:33.537Z,10.77
2019-05-10T07:59:05.343Z,11.57
2019-05-10T08:01:37.074Z,11.07
2019-05-10T08:04:09.349Z,11.67
2019-05-10T08:06:47.469Z,10.37
2019-05-10T08:09:16.027Z,11.00
2019-05-10T08:11:48.469Z,10.07
2019-05-10T08:14:20.379Z,9.87
2019-05-10T08:16:58.319Z,9.63
2019-05-10T08:19:25.792Z,10.10
2019-05-10T08:22:01.844Z,10.80
2019-05-10T08:24:35.170Z,10.70
2019-05-10T08:27:11.235Z,11.07
2019-05-10T08:29:38.602Z,11.60
2019-05-10T08:32:12.654Z,10.10
2019-05-10T08:34:51.798Z,10.63
2019-05-10T08:37:30.373Z,11.03
2019-05-10T08:39:55.993Z,11.12
2019-05-10T08:42:40.863Z,11.00
2019-05-10T08:45:05.430Z,11.37
2019-05-10T08:47:34.573Z,11.50
2019-05-10T08:50:22.732Z,11.63
2019-05-10T08:52:42.304Z,11.23
2019-05-10T08:55:13.709Z,11.20
2019-05-10T08:57:49.120Z,12.03
2019-05-10T09:00:37.150Z,10.40
2019-05-10T09:02:52.831Z,10.23
2019-05-10T09:05:28.818Z,10.80
2019-05-10T09:07:58.395Z,9.37
2019-05-10T09:10:32.269Z,10.57
2019-05-10T09:13:03.741Z,9.97
2019-05-10T09:15:35.489Z,10.00
2019-05-10T09:18:07.705Z,9.93
2019-05-10T09:20:41.923Z,8.97
2019-05-10T09:23:18.498Z,8.50
2019-05-10T09:25:46.973Z,7.40
2019-05-10T09:28:18.802Z,9.00
2019-05-10T09:30:59.338Z,7.60
2019-05-10T09:33:24.148Z,7.90
2019-05-10T09:35:59.150Z,6.50
2019-05-10T09:38:34.767Z,6.30
2019-05-10T09:41:03.225Z,6.30
2019-05-10T09:43:39.856Z,6.95
2019-05-10T09:46:08.580Z,6.67
2019-05-10T09:48:44.699Z,7.83
2019-05-10T09:51:18.968Z,7.50
2019-05-10T09:53:48.534Z,7.33
2019-05-10T09:56:20.588Z,7.33
2019-05-10T09:58:52.306Z,6.93
2019-05-10T10:01:24.013Z,6.70
2019-05-10T10:03:57.921Z,6.57
2019-05-10T10:06:29.765Z,6.87
2019-05-10T10:09:03.784Z,8.33
2019-05-10T10:11:35.496Z,7.87
2019-05-10T10:14:07.577Z,8.03
2019-05-10T10:16:45.765Z,6.97
2019-05-10T10:19:14.565Z,7.90
2019-05-10T10:21:47.609Z,7.40
2019-05-10T10:24:20.316Z,7.47
2019-05-10T10:26:53.907Z,6.80
2019-05-10T10:29:28.711Z,6.67
2019-05-10T10:31:59.493Z,6.53
2019-05-10T10:34:32.691Z,7.23
2019-05-10T10:37:07.598Z,7.40
2019-05-10T10:39:38.469Z,7.63
2019-05-10T10:42:13.062Z,7.73
2019-05-10T10:44:43.831Z,8.23
2019-05-10T10:47:17.864Z,11.00
2019-05-10T10:49:49.241Z,7.23
2019-05-10T10:52:21.070Z,6.23
2019-05-10T10:54:52.808Z,6.33
2019-05-10T10:57:24.504Z,5.77
2019-05-10T10:59:57.483Z,5.13
2019-05-10T11:02:33.704Z,5.00
2019-05-10T11:05:03.614Z,5.83
2019-05-10T11:07:36.470Z,5.20
2019-05-10T11:10:16.088Z,4.72
2019-05-10T11:12:42.814Z,5.50
2019-05-10T11:15:16.399Z,4.15
2019-05-10T11:17:50.472Z,5.03
2019-05-10T11:20:21.837Z,5.40
2019-05-10T11:22:53.666Z,4.60
2019-05-10T11:25:25.463Z,4.60
2019-05-10T11:27:59.314Z,4.03
2019-05-10T11:30:32.580Z,4.45
2019-05-10T11:33:04.575Z,3.42
2019-05-10T11:35:36.346Z,3.85
2019-05-10T11:38:12.714Z,4.97
2019-05-10T11:40:42.059Z,4.95
2019-05-10T11:43:17.280Z,4.67
2019-05-10T11:45:47.732Z,4.07
2019-05-10T11:48:21.593Z,3.10
2019-05-10T11:50:53.262Z,2.90
2019-05-10T11:53:25.065Z,2.23
2019-05-10T11:55:56.845Z,2.80
2019-05-10T11:58:31.096Z,2.90
2019-05-10T12:01:13.557Z,3.03
2019-05-10T12:03:36.175Z,3.20
2019-05-10T12:06:09.058Z,3.13
2019-05-10T12:08:42.022Z,3.70
2019-05-10T12:11:27.487Z,2.73
2019-05-10T12:13:47.532Z,3.13
2019-05-10T12:16:21.452Z,3.60
2019-05-10T12:19:17.096Z,4.17
2019-05-10T12:21:26.833Z,3.70
2019-05-10T12:24:10.338Z,3.23
2019-05-10T12:29:12.402Z,4.00
2019-05-10T12:31:41.463Z,3.93
2019-05-10T12:34:14.597Z,3.77
2019-05-10T12:36:46.825Z,3.60
2019-05-10T12:39:21.289Z,4.10
2019-05-10T12:41:53.200Z,3.83
2019-05-10T12:44:25.264Z,4.23
2019-05-10T12:46:57.201Z,4.17
2019-05-10T12:49:28.905Z,4.33
2019-05-10T12:52:03.216Z,3.83
2019-05-10T12:54:34.298Z,4.07
2019-05-10T12:57:06.045Z,4.73
2019-05-10T12:59:37.767Z,4.10
2019-05-10T13:02:10.742Z,4.93
2019-05-10T13:04:47.283Z,4.97
2019-05-10T13:07:16.863Z,5.27
2019-05-10T13:09:50.171Z,5.43
2019-05-10T13:12:22.357Z,54.40
2019-05-10T13:14:54.070Z,5.87
2019-05-10T13:17:25.809Z,5.33
2019-05-10T13:19:58.340Z,6.57
2019-05-10T13:22:36.755Z,5.00
2019-05-10T13:25:05.544Z,5.93
2019-05-10T13:27:37.735Z,5.93
2019-05-10T13:30:10.297Z,5.53
2019-05-10T13:32:42.048Z,5.63
2019-05-10T13:35:13.942Z,6.00
2019-05-10T13:37:45.664Z,5.43
2019-05-10T13:40:17.590Z,5.30
2019-05-10T13:42:49.421Z,5.40
2019-05-10T13:45:21.353Z,4.87
2019-05-10T13:47:53.180Z,5.43
2019-05-10T13:50:24.901Z,3.87
2019-05-10T13:52:56.623Z,4.30
2019-05-10T13:55:28.520Z,4.63
2019-05-10T13:58:00.250Z,3.93
2019-05-10T14:00:34.231Z,2.97
2019-05-10T14:03:11.360Z,4.07
2019-05-10T14:05:40.273Z,3.50
2019-05-10T14:08:12.746Z,2.77
2019-05-10T14:10:44.483Z,1.93
2019-05-10T14:13:16.987Z,2.30
2019-05-10T14:15:48.913Z,2.27
2019-05-10T14:18:20.678Z,2.73
2019-05-10T14:20:52.481Z,3.17
2019-05-10T14:23:29.005Z,2.80
2019-05-10T14:25:57.833Z,3.03
2019-05-10T14:28:29.573Z,4.00
2019-05-10T14:31:01.300Z,2.93
2019-05-10T14:33:33.175Z,2.83
2019-05-10T14:36:05.017Z,2.67
2019-05-10T14:38:36.764Z,2.43
2019-05-10T14:41:10.744Z,2.60
2019-05-10T14:43:42.298Z,3.47
2019-05-10T14:46:14.198Z,2.77
2019-05-10T14:48:46.043Z,2.27
2019-05-10T14:51:17.864Z,2.50
2019-05-10T14:53:49.608Z,2.97
2019-05-10T14:56:21.357Z,2.40
2019-05-10T14:58:53.159Z,2.00
2019-05-10T15:01:24.944Z,2.50
2019-05-10T15:03:56.736Z,2.00
2019-05-10T15:06:30.692Z,2.10
2019-05-10T15:09:03.206Z,1.83
2019-05-10T15:11:35.345Z,1.67
2019-05-10T15:14:07.168Z,2.00
2019-05-10T15:16:39.017Z,1.40
2019-05-10T15:19:10.732Z,2.23
2019-05-10T15:21:42.460Z,2.67
2019-05-10T15:24:14.213Z,2.80
2019-05-10T15:26:46.162Z,2.53
2019-05-10T15:29:22.279Z,1.80
2019-05-10T15:31:53.388Z,1.50
2019-05-10T15:34:25.246Z,1.40
2019-05-10T15:37:02.557Z,1.60
2019-05-10T15:39:30.652Z,1.93
2019-05-10T15:42:02.962Z,2.00
2019-05-10T15:44:34.786Z,1.60
2019-05-10T15:47:06.624Z,2.40
2019-05-10T15:49:38.456Z,2.30
2019-05-10T15:54:46.894Z,2.13
2019-05-10T15:57:20.184Z,1.97
2019-05-10T15:59:23.919Z,2.40
2019-05-10T15:59:56.438Z,1.97
2019-05-10T16:02:24.815Z,1.80
2019-05-10T16:04:56.649Z,2.17
2019-05-10T16:07:28.408Z,2.40
2019-05-10T16:10:00.153Z,2.30
2019-05-10T16:12:31.980Z,1.97
2019-05-10T16:15:05.009Z,1.60
2019-05-10T16:17:36.742Z,1.60
2019-05-10T16:20:08.980Z,1.67
2019-05-10T16:22:40.797Z,1.83
2019-05-10T16:25:12.821Z,1.60
2019-05-10T16:27:45.082Z,1.60
2019-05-10T16:30:20.263Z,1.40
2019-05-10T16:32:52.253Z,2.17
2019-05-10T16:35:37.766Z,1.43
2019-05-10T16:37:57.644Z,1.27
2019-05-10T16:40:29.446Z,1.73
2019-05-10T16:43:01.158Z,1.80
2019-05-10T16:45:33.040Z,2.53
2019-05-10T16:48:05.815Z,2.33
2019-05-10T16:50:38.628Z,1.60
2019-05-10T16:53:10.353Z,1.63
2019-05-10T16:55:42.951Z,7.63
2019-05-10T16:58:17.547Z,2.80
2019-05-10T17:00:48.636Z,2.67
2019-05-10T17:03:20.628Z,1.70
2019-05-10T17:05:53.942Z,1.97
2019-05-10T17:08:30.831Z,2.80
2019-05-10T17:11:09.442Z,2.33
2019-05-10T17:13:36.297Z,2.27
2019-05-10T17:16:11.607Z,3.37
2019-05-10T17:18:40.883Z,2.70
2019-05-10T17:21:12.633Z,7.10
2019-05-10T17:23:46.794Z,3.13
2019-05-10T17:26:18.022Z,3.57
2019-05-10T17:28:49.739Z,2.67
2019-05-10T17:31:21.480Z,2.80
2019-05-10T17:33:53.213Z,1.83
2019-05-10T17:36:24.963Z,1.90
2019-05-10T17:38:56.788Z,2.60
2019-05-10T17:41:28.520Z,2.70
2019-05-10T17:44:00.297Z,2.33
2019-05-10T17:46:32.083Z,2.00
2019-05-10T17:49:03.981Z,3.70
2019-05-10T17:51:35.743Z,1.80
2019-05-10T17:54:07.598Z,1.83
2019-05-10T17:56:40.682Z,1.77
2019-05-10T17:59:14.015Z,1.70
2019-05-10T18:01:45.984Z,2.20
2019-05-10T18:04:37.463Z,2.50
2019-05-10T18:07:09.201Z,3.40
2019-05-10T18:09:40.987Z,2.93
2019-05-10T18:12:15.528Z,3.93
2019-05-10T18:14:50.217Z,2.63
2019-05-10T18:17:25.859Z,2.33
2019-05-10T18:20:02.327Z,2.77
2019-05-10T18:22:41.818Z,3.00
2019-05-10T18:25:19.366Z,2.47
2019-05-10T18:27:41.696Z,3.43
2019-05-10T18:30:13.966Z,3.00
2019-05-10T18:32:45.927Z,2.50
2019-05-10T18:35:17.800Z,2.67
2019-05-10T18:37:53.613Z,2.13
2019-05-10T18:40:25.213Z,3.17
2019-05-10T18:42:57.739Z,3.83
2019-05-10T18:45:30.840Z,3.80
2019-05-10T18:48:02.682Z,6.17
2019-05-10T18:50:39.199Z,3.10
2019-05-10T18:53:08.066Z,5.27
2019-05-10T18:55:39.886Z,6.67
2019-05-10T18:58:11.619Z,3.13
2019-05-10T19:00:43.593Z,4.13
2019-05-10T19:03:15.446Z,4.83
2019-05-10T19:05:47.166Z,6.60
2019-05-10T19:08:18.902Z,9.57
2019-05-10T19:10:50.926Z,9.50
2019-05-10T19:13:22.927Z,6.03
2019-05-10T19:15:58.175Z,6.67
2019-05-10T19:18:28.595Z,5.40
2019-05-10T19:21:00.317Z,6.60
2019-05-10T19:23:32.045Z,4.80
2019-05-10T19:26:03.764Z,6.20
2019-05-10T19:28:35.484Z,6.53
2019-05-10T19:31:07.186Z,7.70
2019-05-10T19:33:38.900Z,7.13
2019-05-10T19:36:13.343Z,6.37
2019-05-10T19:38:44.712Z,6.03
2019-05-10T19:41:20.217Z,6.00
2019-05-10T19:43:50.269Z,8.57
2019-05-10T19:46:23.725Z,5.70
2019-05-10T19:48:55.448Z,5.20
2019-05-10T19:51:30.432Z,6.40
2019-05-10T19:54:03.825Z,5.03
2019-05-10T19:56:36.882Z,4.07
2019-05-10T19:59:11.681Z,6.60
2019-05-10T20:01:45.187Z,5.63
2019-05-10T20:04:16.717Z,6.63
2019-05-10T20:06:48.523Z,6.37
2019-05-10T20:09:20.330Z,7.67
2019-05-10T20:11:52.052Z,4.67
2019-05-10T20:14:24.553Z,4.07
2019-05-10T20:16:56.373Z,4.50
2019-05-10T20:19:28.124Z,4.00
2019-05-10T20:21:59.866Z,5.10
2019-05-10T20:24:31.593Z,4.70
2019-05-10T20:27:03.465Z,4.30
2019-05-10T20:29:35.833Z,2.93
2019-05-10T20:32:09.869Z,3.80
2019-05-10T20:34:43.529Z,3.80
2019-05-10T20:37:15.410Z,4.33
2019-05-10T20:39:47.359Z,8.33
2019-05-10T20:42:19.373Z,9.07
2019-05-10T20:45:06.143Z,9.27
2019-05-10T20:47:26.028Z,7.43
2019-05-10T20:49:57.994Z,7.47
2019-05-10T20:52:29.906Z,4.40
2019-05-10T20:55:02.150Z,3.60
2019-05-10T20:57:34.186Z,3.50
2019-05-10T21:00:06.306Z,3.63
2019-05-10T21:02:38.268Z,3.87
2019-05-10T21:05:10.368Z,5.13
2019-05-10T21:07:42.338Z,5.07
2019-05-10T21:10:14.293Z,4.83
2019-05-10T21:12:45.998Z,5.23
2019-05-10T21:15:17.741Z,4.53
2019-05-10T21:17:49.469Z,4.30
2019-05-10T21:20:21.287Z,3.83
2019-05-10T21:22:54.979Z,4.23
2019-05-10T21:25:27.862Z,4.30
2019-05-10T21:27:59.655Z,4.17
2019-05-10T21:30:31.372Z,4.17
2019-05-10T21:33:03.128Z,4.50
2019-05-10T21:35:34.901Z,4.57
2019-05-10T21:38:06.605Z,4.27
2019-05-10T21:40:38.336Z,4.53
2019-05-10T21:43:10.057Z,4.80
2019-05-10T21:45:41.902Z,7.63
2019-05-10T21:48:13.619Z,6.23
2019-05-10T21:50:45.407Z,4.63
2019-05-10T21:53:17.181Z,3.97
2019-05-10T21:55:48.909Z,3.83
2019-05-10T21:58:20.623Z,4.40
2019-05-10T22:00:52.656Z,4.53
2019-05-10T22:03:24.352Z,4.90
2019-05-10T22:05:56.074Z,3.90
2019-05-10T22:08:27.885Z,4.90
2019-05-10T22:10:59.701Z,4.87
2019-05-10T22:13:31.497Z,4.50
2019-05-10T22:16:03.332Z,5.37
2019-05-10T22:18:36.964Z,4.83
2019-05-10T22:21:08.810Z,4.50
2019-05-10T22:23:40.544Z,4.37
2019-05-10T22:26:12.384Z,4.40
2019-05-10T22:28:44.129Z,4.23
2019-05-10T22:31:15.870Z,4.23
2019-05-10T22:33:47.703Z,4.67
2019-05-10T22:36:19.456Z,4.57
2019-05-10T22:39:05.679Z,3.90
2019-05-10T22:41:25.022Z,4.07
2019-05-10T22:43:56.864Z,4.03
2019-05-10T22:46:28.722Z,3.97
2019-05-10T22:49:00.452Z,3.87
2019-05-10T22:51:32.277Z,4.70
2019-05-10T22:54:04.214Z,3.97
2019-05-10T22:56:35.965Z,4.33
2019-05-10T22:59:07.774Z,4.87
2019-05-10T23:01:39.631Z,4.27
2019-05-10T23:04:11.354Z,4.20
2019-05-10T23:06:43.173Z,4.53
2019-05-10T23:09:23.951Z,4.70
2019-05-10T23:11:48.636Z,4.40
2019-05-10T23:14:20.345Z,4.13
2019-05-10T23:16:52.055Z,4.07
2019-05-10T23:19:23.786Z,4.40
2019-05-10T23:21:55.502Z,4.13
2019-05-10T23:24:39.283Z,4.37
2019-05-10T23:27:11.009Z,3.83
2019-05-10T23:29:42.721Z,4.17
2019-05-10T23:32:14.562Z,4.43
2019-05-10T23:34:46.273Z,4.20
2019-05-10T23:37:18.017Z,5.17
2019-05-10T23:39:49.816Z,4.63
2019-05-10T23:42:21.570Z,4.93
2019-05-10T23:44:53.300Z,4.10
2019-05-10T23:47:25.022Z,4.30
2019-05-10T23:49:56.749Z,4.97
2019-05-10T23:52:28.496Z,4.73
2019-05-10T23:55:00.213Z,4.90
2019-05-10T23:57:31.953Z,5.30
